Terminal Aerodrome Forecast
Issued by NWS

Home | Current Version | Previous Version | Text Only | Print | Product List | Glossary On
Versions: 1 2 3 4 5 6 7 8 9 10 11 12 13
000
FTUS45 KPSR 202340
TAFIPL
TAF
KIPL 202340Z 2100/2124 24015KT 6SM -SHRA BKN050 OVC070
      TEMPO 2101/2103 24022G33KT 5SM SHRA BKN040
     FM210300 24024G32KT 5SM BR VCSH OVC040
     FM210900 28020G28KT P6SM SCT060 BKN120
     FM211400 28022G32KT P6SM SCT060 SCT150=

USA.gov is the U.S. government's official web portal to all federal, state and local government web resources and services.